Huxley, Texas
Current Conditions -  °F | °C
As of 9:55 AM on Thursday 30 Oct 2014 (Local Time) from KOCH Reporting Station
Clear Clear  
Wind Chill: 61°   Ceiling: Unl
Heat Index: 61°   Visibility: 10mi
Dew Point: 48°   Wind: 8mph
Humidity: 63%   Direction: 130°SE
Pressure: 30.19"   Gusts: NA
Location:  31.7022°N, 93.9592°W
Report Text: KOCH 301455Z AUTO 13007KT 10SM CLR 16/09 A3019 RMK AO1 52014
Loading
Personal Weather Stations






























Interactive Weather Map
Tropical Storm Tracking
New forecast layout! Learn more

10-Day Weather Forecast

Advertisements
Track Severe Weather on mobile